Time;durP1;ratioP1;P1;durP2;ratioP2;P2;SDS_P1;SDS_P2;PMS_P1;PMS_P2;Temp;Humidity;BMP_temperature;BMP_pressure;BME280_temperature;BME280_humidity;BME280_pressure;Samples;Min_cycle;Max_cycle;Signal;HPM_P1;HPM_P2
2021/01/15 00:01:47;;;;;;;8.57;6.70;;;1.20;90.10;;;;;;5024414;28;20051;-66
2021/01/15 00:04:12;;;;;;;9.20;6.18;;;1.20;90.00;;;;;;5028636;28;20395;-67
2021/01/15 00:06:38;;;;;;;8.82;6.45;;;1.20;90.00;;;;;;5029825;28;20033;-67
2021/01/15 00:09:04;;;;;;;9.63;6.80;;;1.20;90.10;;;;;;5024833;28;20041;-67
2021/01/15 00:11:31;;;;;;;8.70;5.78;;;1.20;90.00;;;;;;5029755;28;20150;-67
2021/01/15 00:14:02;;;;;;;9.32;6.80;;;1.20;90.10;;;;;;5027163;28;20063;-66
2021/01/15 00:16:30;;;;;;;9.38;6.32;;;1.20;89.90;;;;;;5027504;28;20129;-67
2021/01/15 00:18:57;;;;;;;9.90;6.53;;;1.20;89.90;;;;;;5027856;28;20041;-67
2021/01/15 00:21:25;;;;;;;8.98;6.80;;;1.20;90.00;;;;;;5028618;28;20046;-67
2021/01/15 00:23:52;;;;;;;11.00;6.43;;;1.20;90.10;;;;;;5021610;28;20053;-67
2021/01/15 00:26:20;;;;;;;10.95;6.75;;;1.20;90.00;;;;;;5024588;28;20041;-67
2021/01/15 00:28:46;;;;;;;9.38;6.53;;;1.20;90.00;;;;;;5023883;28;20491;-67
2021/01/15 00:31:13;;;;;;;9.68;7.00;;;1.20;90.00;;;;;;5022034;28;20044;-67
2021/01/15 00:33:39;;;;;;;9.20;7.32;;;1.20;90.10;;;;;;5024297;28;20045;-67
2021/01/15 00:36:06;;;;;;;8.63;6.82;;;1.20;90.10;;;;;;5032977;28;20052;-67
2021/01/15 00:38:32;;;;;;;11.52;6.78;;;1.20;90.10;;;;;;5026494;28;20166;-67
2021/01/15 00:41:08;;;;;;;13.27;7.35;;;1.20;90.00;;;;;;5026259;28;20073;-67
2021/01/15 00:43:35;;;;;;;7.75;6.63;;;1.20;90.10;;;;;;5026823;28;20046;-67
2021/01/15 00:46:01;;;;;;;7.97;6.60;;;1.20;90.10;;;;;;5028599;28;20045;-67
2021/01/15 00:48:27;;;;;;;11.52;6.95;;;1.20;90.10;;;;;;5026305;28;20476;-67
2021/01/15 00:50:52;;;;;;;13.07;6.80;;;1.20;90.10;;;;;;5024066;28;20048;-67
2021/01/15 00:53:18;;;;;;;10.25;7.10;;;1.20;90.10;;;;;;5027182;28;20496;-67
2021/01/15 00:55:44;;;;;;;9.68;7.53;;;1.20;90.00;;;;;;5025914;28;20464;-67
2021/01/15 00:58:13;;;;;;;9.27;7.47;;;1.30;90.10;;;;;;5029593;28;20083;-67
2021/01/15 01:00:40;;;;;;;10.13;7.97;;;1.20;90.10;;;;;;5028634;28;20144;-67
2021/01/15 01:03:06;;;;;;;9.75;7.43;;;1.20;90.10;;;;;;5028765;28;20084;-66
2021/01/15 01:05:32;;;;;;;11.60;8.15;;;1.20;90.00;;;;;;5029946;28;20448;-67
2021/01/15 01:07:58;;;;;;;9.77;7.07;;;1.20;89.70;;;;;;5022453;28;20054;-67
2021/01/15 01:10:24;;;;;;;7.18;6.47;;;1.20;90.10;;;;;;5024585;28;20483;-66
2021/01/15 01:12:50;;;;;;;10.55;7.35;;;1.20;89.80;;;;;;5028212;28;20163;-67
2021/01/15 01:15:15;;;;;;;9.77;7.13;;;1.20;90.00;;;;;;5026609;28;20037;-67
2021/01/15 01:17:42;;;;;;;11.82;7.70;;;1.20;90.00;;;;;;5025167;28;20044;-67
2021/01/15 01:20:10;;;;;;;9.88;6.90;;;1.20;90.00;;;;;;5029454;28;20491;-67
2021/01/15 01:22:37;;;;;;;10.10;7.50;;;1.20;90.10;;;;;;5026203;28;20068;-67
2021/01/15 01:25:04;;;;;;;12.48;7.82;;;1.20;90.10;;;;;;5026778;28;20069;-67
2021/01/15 01:27:30;;;;;;;9.13;7.57;;;1.20;90.00;;;;;;5028512;28;20041;-67
2021/01/15 01:29:55;;;;;;;11.13;7.68;;;1.40;90.00;;;;;;5021564;28;20034;-67
2021/01/15 01:32:21;;;;;;;14.80;7.95;;;1.20;90.10;;;;;;5021229;28;20037;-67
2021/01/15 01:34:47;;;;;;;8.95;6.75;;;1.20;90.10;;;;;;5024419;28;20470;-66
2021/01/15 01:37:13;;;;;;;10.77;7.35;;;1.30;90.00;;;;;;5028019;28;20123;-67
2021/01/15 01:39:38;;;;;;;10.32;8.02;;;1.20;90.00;;;;;;5022703;28;20081;-67
2021/01/15 01:42:05;;;;;;;11.25;7.82;;;1.20;89.80;;;;;;5029983;28;20419;-67
2021/01/15 01:44:30;;;;;;;10.13;6.82;;;1.20;89.70;;;;;;5020167;28;20041;-67
2021/01/15 01:46:56;;;;;;;8.90;7.13;;;1.20;89.90;;;;;;5029360;28;20068;-67
2021/01/15 01:49:22;;;;;;;14.00;7.70;;;1.20;89.90;;;;;;5025846;28;20089;-66
2021/01/15 01:51:52;;;;;;;12.38;6.90;;;1.20;90.20;;;;;;5024101;28;20045;-67
2021/01/15 01:54:18;;;;;;;11.98;8.48;;;1.20;90.40;;;;;;5021036;28;20124;-67
2021/01/15 01:56:44;;;;;;;10.50;7.30;;;1.20;90.40;;;;;;5023514;28;20088;-67
2021/01/15 01:59:12;;;;;;;8.82;7.45;;;1.10;90.40;;;;;;5027857;28;20041;-66
2021/01/15 02:01:38;;;;;;;9.75;7.45;;;1.20;90.50;;;;;;5019041;28;20088;-67
2021/01/15 02:04:05;;;;;;;11.88;7.18;;;1.20;90.50;;;;;;5027211;28;20041;-66
2021/01/15 02:06:35;;;;;;;12.52;7.88;;;1.20;90.40;;;;;;5023494;28;20488;-67
2021/01/15 02:09:10;;;;;;;10.07;8.02;;;1.20;90.40;;;;;;5021816;28;20113;-67
2021/01/15 02:11:39;;;;;;;9.10;7.38;;;1.30;90.40;;;;;;5018195;28;20376;-67
2021/01/15 02:14:24;;;;;;;17.42;8.30;;;1.20;90.30;;;;;;5023461;28;20045;-67
2021/01/15 02:16:52;;;;;;;12.00;7.32;;;1.30;90.40;;;;;;5021601;28;20111;-67
2021/01/15 02:19:50;;;;;;;11.10;8.18;;;1.20;90.30;;;;;;5022776;28;20030;-67
2021/01/15 02:22:52;;;;;;;11.57;7.13;;;1.20;90.40;;;;;;5025710;28;20042;-67
2021/01/15 02:25:33;;;;;;;10.60;7.68;;;1.20;90.60;;;;;;5024976;28;20033;-67
2021/01/15 02:28:29;;;;;;;13.55;8.75;;;1.20;90.70;;;;;;5025354;28;20120;-66
2021/01/15 02:31:17;;;;;;;11.07;8.35;;;1.10;91.00;;;;;;5027179;28;20159;-66
2021/01/15 02:33:54;;;;;;;13.32;7.90;;;1.10;91.00;;;;;;5017579;28;20060;-67
2021/01/15 02:36:32;;;;;;;12.63;8.93;;;1.10;91.20;;;;;;5025502;28;20124;-67
2021/01/15 02:39:11;;;;;;;11.77;7.78;;;1.20;91.20;;;;;;5026569;28;20044;-67
2021/01/15 02:41:38;;;;;;;11.68;7.88;;;1.30;91.10;;;;;;5028316;28;20038;-67
2021/01/15 02:44:05;;;;;;;12.77;8.35;;;1.20;91.20;;;;;;5028190;28;20041;-67
2021/01/15 02:46:43;;;;;;;11.82;8.10;;;1.20;91.10;;;;;;5022652;28;20041;-67
2021/01/15 02:49:10;;;;;;;12.95;9.50;;;1.20;91.30;;;;;;5029501;28;20037;-67
2021/01/15 02:51:38;;;;;;;11.52;8.50;;;1.30;91.30;;;;;;5030199;28;20125;-67
2021/01/15 02:54:04;;;;;;;11.43;8.07;;;1.30;91.20;;;;;;5028400;28;20037;-67
2021/01/15 02:56:30;;;;;;;13.98;8.00;;;1.30;91.10;;;;;;5026170;28;20096;-67
2021/01/15 02:58:56;;;;;;;9.52;7.55;;;1.30;90.90;;;;;;5021311;28;20510;-67
2021/01/15 03:01:22;;;;;;;10.15;8.30;;;1.30;90.80;;;;;;5021258;28;20041;-66
2021/01/15 03:03:52;;;;;;;15.15;8.73;;;1.30;90.80;;;;;;5023147;28;20033;-67
2021/01/15 03:07:03;;;;;;;9.05;7.45;;;1.30;90.80;;;;;;5023348;28;20041;-67
2021/01/15 03:09:37;;;;;;;12.35;8.95;;;1.30;90.80;;;;;;5017143;28;20056;-67
2021/01/15 03:12:06;;;;;;;12.18;8.55;;;1.20;90.80;;;;;;5023418;28;20037;-67
2021/01/15 03:14:35;;;;;;;11.77;8.68;;;1.30;90.90;;;;;;5025376;28;20048;-67
2021/01/15 03:17:05;;;;;;;10.80;8.25;;;1.20;90.80;;;;;;5021315;28;20064;-67
2021/01/15 03:19:32;;;;;;;12.18;8.55;;;1.20;91.00;;;;;;5023508;28;20050;-66
2021/01/15 03:22:14;;;;;;;10.65;8.13;;;1.20;91.20;;;;;;5027259;28;20507;-67
2021/01/15 03:25:10;;;;;;;10.07;7.88;;;1.20;91.20;;;;;;5023231;28;20049;-67
2021/01/15 03:27:43;;;;;;;10.10;7.83;;;1.20;91.00;;;;;;5021173;28;20062;-67
2021/01/15 03:30:17;;;;;;;10.73;7.57;;;1.30;91.10;;;;;;5025709;28;20499;-67
2021/01/15 03:32:44;;;;;;;9.93;7.85;;;1.30;91.10;;;;;;5028442;28;20042;-67
2021/01/15 03:35:23;;;;;;;11.15;7.95;;;1.30;90.80;;;;;;5030863;28;20383;-67
2021/01/15 03:37:57;;;;;;;9.80;8.45;;;1.40;90.70;;;;;;5021777;28;20810;-67
2021/01/15 03:40:24;;;;;;;9.35;7.82;;;1.40;90.90;;;;;;5029135;28;20447;-67
2021/01/15 03:42:50;;;;;;;10.23;8.02;;;1.20;90.80;;;;;;5023387;28;20482;-67
2021/01/15 03:45:16;;;;;;;10.00;7.88;;;1.20;90.80;;;;;;5027115;28;20044;-67
2021/01/15 03:47:42;;;;;;;13.02;8.30;;;1.30;90.70;;;;;;5027697;28;20095;-67
2021/01/15 03:50:09;;;;;;;9.18;8.23;;;1.20;90.40;;;;;;5025342;28;20053;-67
2021/01/15 03:52:35;;;;;;;9.95;7.95;;;1.30;90.30;;;;;;5028929;28;20037;-67
2021/01/15 03:55:01;;;;;;;10.88;7.38;;;1.30;90.50;;;;;;5029721;28;20047;-67
2021/01/15 03:57:26;;;;;;;10.40;7.07;;;1.30;90.20;;;;;;5024270;28;20037;-67
2021/01/15 03:59:52;;;;;;;9.80;7.97;;;1.30;90.10;;;;;;5024701;28;20539;-67
2021/01/15 04:02:18;;;;;;;10.05;7.55;;;1.40;90.50;;;;;;5027505;28;20053;-67
2021/01/15 04:04:48;;;;;;;10.70;7.13;;;1.40;90.20;;;;;;5028048;28;20049;-67
2021/01/15 04:07:17;;;;;;;9.80;7.22;;;1.40;89.80;;;;;;5022374;28;20143;-67
2021/01/15 04:09:43;;;;;;;9.95;7.35;;;1.40;90.00;;;;;;5027120;28;20116;-67
2021/01/15 04:12:12;;;;;;;11.05;7.03;;;1.50;90.20;;;;;;5028179;28;20132;-67
2021/01/15 04:14:39;;;;;;;9.52;7.50;;;1.50;90.00;;;;;;5028158;28;20047;-67
2021/01/15 04:17:05;;;;;;;10.88;7.55;;;1.50;90.10;;;;;;5029233;28;20091;-67
2021/01/15 04:19:31;;;;;;;9.93;7.45;;;1.40;90.00;;;;;;5027812;28;20038;-67
2021/01/15 04:21:57;;;;;;;10.88;7.95;;;1.50;89.80;;;;;;5027043;28;20059;-67
2021/01/15 04:24:23;;;;;;;9.38;7.47;;;1.50;89.90;;;;;;5027398;28;20515;-67
2021/01/15 04:26:53;;;;;;;9.50;7.55;;;1.50;89.80;;;;;;5027073;28;20527;-67
2021/01/15 04:29:19;;;;;;;9.60;7.80;;;1.50;89.60;;;;;;5048257;28;20100;-67
2021/01/15 04:31:46;;;;;;;9.93;7.28;;;1.50;89.60;;;;;;5023713;28;20076;-67
2021/01/15 04:34:11;;;;;;;8.45;7.00;;;1.50;88.80;;;;;;5026825;28;20046;-67
2021/01/15 04:36:37;;;;;;;9.70;7.13;;;1.60;90.00;;;;;;5026702;28;20080;-67
2021/01/15 04:39:04;;;;;;;8.57;6.80;;;1.60;89.90;;;;;;5028953;28;20029;-67
2021/01/15 04:41:33;;;;;;;7.57;6.78;;;1.50;89.90;;;;;;5026915;28;20041;-67
2021/01/15 04:44:00;;;;;;;9.32;7.35;;;1.60;89.60;;;;;;5023865;28;20054;-67
2021/01/15 04:46:27;;;;;;;12.68;7.95;;;1.60;89.40;;;;;;5024236;28;20053;-67
2021/01/15 04:48:54;;;;;;;10.45;7.68;;;1.60;89.70;;;;;;5025210;28;20040;-66
2021/01/15 04:51:22;;;;;;;8.73;7.07;;;1.60;89.60;;;;;;5029114;28;20051;-67
2021/01/15 04:54:02;;;;;;;10.15;7.72;;;1.60;89.90;;;;;;5027929;28;20052;-67
2021/01/15 04:56:49;;;;;;;9.63;8.02;;;1.60;89.80;;;;;;5025245;28;20387;-67
2021/01/15 04:59:15;;;;;;;11.15;7.55;;;1.60;89.60;;;;;;5024094;28;20049;-67
2021/01/15 05:01:43;;;;;;;10.05;7.68;;;1.60;89.70;;;;;;5024282;28;20042;-67
2021/01/15 05:04:10;;;;;;;9.45;7.15;;;1.60;89.50;;;;;;5024303;28;20042;-67
2021/01/15 05:06:56;;;;;;;9.57;7.70;;;1.60;89.00;;;;;;5029146;28;20037;-67
2021/01/15 05:09:25;;;;;;;9.60;7.60;;;1.60;88.50;;;;;;5028669;28;20045;-67
2021/01/15 05:11:52;;;;;;;9.00;7.15;;;1.60;88.80;;;;;;5022651;28;20037;-67
2021/01/15 05:14:20;;;;;;;9.07;7.07;;;1.60;89.10;;;;;;5026853;28;20041;-67
2021/01/15 05:16:49;;;;;;;10.05;7.03;;;1.60;88.50;;;;;;5023197;28;20039;-67
2021/01/15 05:19:15;;;;;;;8.50;6.63;;;1.60;88.80;;;;;;5023476;28;20395;-67
2021/01/15 05:21:42;;;;;;;9.40;7.32;;;1.60;89.20;;;;;;5022588;28;20075;-67
2021/01/15 05:24:10;;;;;;;9.88;8.07;;;1.70;89.70;;;;;;5026089;28;20484;-67
2021/01/15 05:26:37;;;;;;;9.82;7.97;;;1.50;90.00;;;;;;5026915;28;20045;-67
2021/01/15 05:29:04;;;;;;;11.15;8.15;;;1.50;90.20;;;;;;5026012;28;20040;-67
2021/01/15 05:32:01;;;;;;;7.53;6.72;;;1.60;90.40;;;;;;5024628;28;20041;-67
2021/01/15 05:34:28;;;;;;;9.00;7.50;;;1.50;90.40;;;;;;5028388;28;20123;-67
2021/01/15 05:36:54;;;;;;;11.52;8.20;;;1.50;90.30;;;;;;5028335;28;20041;-67
2021/01/15 05:39:27;;;;;;;9.57;7.53;;;1.50;90.50;;;;;;5024182;28;20044;-67
2021/01/15 05:42:01;;;;;;;11.07;7.82;;;1.50;90.20;;;;;;5024979;28;20064;-67
2021/01/15 05:44:33;;;;;;;9.82;7.82;;;1.50;90.20;;;;;;5025612;28;20037;-67
2021/01/15 05:47:00;;;;;;;8.90;7.40;;;1.50;90.20;;;;;;5024161;28;20053;-67
2021/01/15 05:49:27;;;;;;;9.77;7.85;;;1.50;90.20;;;;;;5025955;28;20045;-66
2021/01/15 05:51:53;;;;;;;9.40;7.90;;;1.50;90.40;;;;;;5029805;28;20116;-67
2021/01/15 05:54:30;;;;;;;9.38;8.38;;;1.50;90.10;;;;;;5017940;28;20048;-67
2021/01/15 05:56:57;;;;;;;10.95;8.50;;;1.50;89.60;;;;;;5021959;28;20072;-67
2021/01/15 05:59:24;;;;;;;10.32;7.82;;;1.50;89.00;;;;;;5015426;28;20033;-67
2021/01/15 06:02:04;;;;;;;9.25;7.88;;;1.50;88.90;;;;;;5025167;28;20077;-67
2021/01/15 06:04:40;;;;;;;10.07;7.55;;;1.50;88.70;;;;;;5021802;28;20045;-67
2021/01/15 06:07:08;;;;;;;8.73;7.45;;;1.50;88.60;;;;;;5025808;28;20124;-67
2021/01/15 06:09:39;;;;;;;9.73;8.52;;;1.60;88.50;;;;;;5025119;28;20041;-67
2021/01/15 06:12:06;;;;;;;10.98;9.00;;;1.50;88.20;;;;;;5026106;28;20130;-67
2021/01/15 06:14:32;;;;;;;12.60;9.35;;;1.50;88.50;;;;;;5025887;28;20100;-67
2021/01/15 06:17:03;;;;;;;10.48;8.38;;;1.60;88.80;;;;;;5025578;28;20108;-67
2021/01/15 06:19:48;;;;;;;11.48;9.05;;;1.60;89.20;;;;;;5027312;28;20041;-67
2021/01/15 06:22:37;;;;;;;10.43;8.60;;;1.60;89.00;;;;;;5026496;28;20115;-67
2021/01/15 06:25:18;;;;;;;10.95;8.30;;;1.60;88.80;;;;;;5024978;28;20135;-67
2021/01/15 06:27:46;;;;;;;10.00;8.45;;;1.60;88.90;;;;;;5023805;28;20044;-67
2021/01/15 06:30:13;;;;;;;10.45;9.05;;;1.60;89.20;;;;;;5024060;28;20067;-67
2021/01/15 06:32:41;;;;;;;9.68;8.32;;;1.50;88.70;;;;;;5024238;28;20502;-67
2021/01/15 06:35:07;;;;;;;9.75;8.75;;;1.50;88.90;;;;;;5025974;28;20099;-67
2021/01/15 06:37:36;;;;;;;10.65;8.88;;;1.50;89.10;;;;;;5027789;28;20030;-67
2021/01/15 06:40:02;;;;;;;10.25;9.15;;;1.60;88.90;;;;;;5024390;28;20029;-67
2021/01/15 06:42:31;;;;;;;11.05;9.70;;;1.50;89.40;;;;;;5026410;28;20060;-67
2021/01/15 06:44:58;;;;;;;12.18;9.70;;;1.50;89.20;;;;;;5027548;28;20399;-66
2021/01/15 06:47:31;;;;;;;12.43;9.20;;;1.50;89.50;;;;;;5025608;28;20534;-67
2021/01/15 06:49:57;;;;;;;15.30;10.20;;;1.50;89.30;;;;;;5020146;28;21552;-67
2021/01/15 06:52:29;;;;;;;10.95;9.27;;;1.50;89.60;;;;;;5021578;28;20081;-67
2021/01/15 06:55:00;;;;;;;13.40;9.88;;;1.50;89.20;;;;;;5020160;28;20040;-67
2021/01/15 06:57:31;;;;;;;11.27;9.40;;;1.50;89.40;;;;;;5020506;28;20404;-67
2021/01/15 06:59:59;;;;;;;10.13;8.82;;;1.50;89.50;;;;;;5019436;28;20038;-67
2021/01/15 07:03:02;;;;;;;11.93;9.70;;;1.50;89.50;;;;;;5019834;28;20388;-67
2021/01/15 07:05:30;;;;;;;11.20;9.05;;;1.50;89.40;;;;;;5018438;28;20077;-67
2021/01/15 07:08:02;;;;;;;13.43;9.55;;;1.50;89.00;;;;;;5015727;28;20420;-68
2021/01/15 07:10:28;;;;;;;11.55;9.82;;;1.50;89.20;;;;;;5021230;28;20038;-67
2021/01/15 07:13:00;;;;;;;13.73;10.20;;;1.60;89.20;;;;;;5023488;28;20037;-67
2021/01/15 07:15:29;;;;;;;17.92;10.55;;;1.60;89.20;;;;;;5021371;28;20041;-67
2021/01/15 07:17:59;;;;;;;13.68;10.55;;;1.60;89.40;;;;;;5019820;28;20042;-67
2021/01/15 07:20:33;;;;;;;12.45;8.95;;;1.60;89.40;;;;;;5017890;28;20038;-67
2021/01/15 07:23:13;;;;;;;12.13;9.68;;;1.60;89.10;;;;;;5020143;28;20045;-67
2021/01/15 07:25:47;;;;;;;10.95;9.82;;;1.60;89.10;;;;;;5025652;28;20052;-67
2021/01/15 07:28:12;;;;;;;11.88;9.40;;;1.60;89.60;;;;;;5019899;28;20396;-67
2021/01/15 07:30:38;;;;;;;12.73;9.55;;;1.60;90.10;;;;;;5020656;28;20039;-67
2021/01/15 07:33:07;;;;;;;12.73;9.77;;;1.50;90.20;;;;;;5023337;28;20046;-67
2021/01/15 07:35:36;;;;;;;13.20;10.43;;;1.50;90.30;;;;;;5020669;28;20048;-67
2021/01/15 07:38:16;;;;;;;11.52;9.00;;;1.50;90.40;;;;;;5024145;28;20038;-67
2021/01/15 07:40:43;;;;;;;15.48;10.32;;;1.50;90.40;;;;;;5026104;28;20037;-67
2021/01/15 07:43:33;;;;;;;10.35;9.23;;;1.50;90.50;;;;;;5028212;28;20037;-67
2021/01/15 07:46:00;;;;;;;13.45;9.73;;;1.50;90.80;;;;;;5020474;28;20041;-67
2021/01/15 07:48:28;;;;;;;12.07;10.27;;;1.50;90.90;;;;;;5023373;28;20053;-67
2021/01/15 07:50:54;;;;;;;11.05;8.95;;;1.50;91.10;;;;;;5026228;28;20116;-67
2021/01/15 07:53:37;;;;;;;9.68;8.65;;;1.50;91.20;;;;;;5023349;28;20036;-67
2021/01/15 07:56:04;;;;;;;11.68;9.57;;;1.50;91.40;;;;;;5018553;28;20037;-67
2021/01/15 07:58:39;;;;;;;12.25;9.15;;;1.50;91.40;;;;;;5023970;28;20049;-67
2021/01/15 08:01:06;;;;;;;13.60;9.98;;;1.50;91.50;;;;;;5020432;28;20040;-66
2021/01/15 08:03:41;;;;;;;16.17;9.70;;;1.60;91.60;;;;;;5016680;28;21080;-67
2021/01/15 08:06:08;;;;;;;19.92;10.07;;;1.50;91.70;;;;;;5022110;28;20133;-67
2021/01/15 08:08:36;;;;;;;13.05;9.10;;;1.50;91.70;;;;;;5016623;28;20044;-67
2021/01/15 08:11:11;;;;;;;11.50;9.52;;;1.60;92.00;;;;;;5023247;28;20038;-67
2021/01/15 08:13:37;;;;;;;17.85;9.40;;;1.60;91.80;;;;;;5025772;28;20100;-67
2021/01/15 08:16:06;;;;;;;10.40;8.52;;;1.50;91.80;;;;;;5021547;28;20046;-67
2021/01/15 08:18:33;;;;;;;10.90;9.20;;;1.60;91.80;;;;;;5022057;28;20033;-67
2021/01/15 08:20:59;;;;;;;10.57;8.75;;;1.70;91.90;;;;;;5027034;28;20037;-67
2021/01/15 08:23:27;;;;;;;11.18;8.93;;;1.60;91.90;;;;;;5024991;28;20120;-67
2021/01/15 08:26:03;;;;;;;12.43;8.60;;;1.60;91.90;;;;;;5024904;28;20067;-67
2021/01/15 08:28:28;;;;;;;10.82;9.07;;;1.60;91.90;;;;;;5030864;28;20094;-67
2021/01/15 08:31:02;;;;;;;10.35;9.27;;;1.80;92.10;;;;;;5026354;28;20038;-67
2021/01/15 08:33:28;;;;;;;10.55;9.32;;;1.60;92.00;;;;;;5031958;28;20049;-67
2021/01/15 08:35:56;;;;;;;10.23;8.75;;;1.60;92.00;;;;;;5028984;28;20060;-67
2021/01/15 08:38:56;;;;;;;13.02;8.88;;;1.60;92.10;;;;;;5029188;28;20052;-67
2021/01/15 08:41:24;;;;;;;10.07;7.95;;;1.60;92.20;;;;;;5022799;28;20045;-67
2021/01/15 08:43:51;;;;;;;11.10;9.18;;;1.70;92.20;;;;;;5028330;28;20053;-67
2021/01/15 08:46:18;;;;;;;13.13;8.02;;;1.60;92.20;;;;;;5022999;28;20480;-67
2021/01/15 08:48:46;;;;;;;10.35;9.07;;;1.60;92.20;;;;;;5025080;28;20454;-68
2021/01/15 08:51:19;;;;;;;10.18;7.68;;;1.60;92.30;;;;;;5024778;28;20066;-67
2021/01/15 08:54:05;;;;;;;9.60;7.88;;;1.70;92.30;;;;;;5025984;28;20939;-67
2021/01/15 08:56:36;;;;;;;12.70;8.73;;;1.70;92.30;;;;;;5030101;28;20037;-67
2021/01/15 08:59:03;;;;;;;16.63;8.90;;;1.70;92.40;;;;;;5025178;28;20080;-67
2021/01/15 09:01:31;;;;;;;13.43;9.38;;;1.70;92.40;;;;;;5030700;28;20037;-67
2021/01/15 09:04:01;;;;;;;13.45;9.38;;;2.00;92.40;;;;;;5027396;28;20395;-67
2021/01/15 09:06:28;;;;;;;14.25;9.25;;;1.80;92.30;;;;;;5022163;28;20042;-67
2021/01/15 09:09:00;;;;;;;11.60;9.00;;;1.80;92.30;;;;;;5028860;28;20037;-67
2021/01/15 09:11:27;;;;;;;10.27;9.13;;;1.80;92.30;;;;;;5028790;28;20033;-67
2021/01/15 09:13:53;;;;;;;10.02;9.02;;;1.80;92.40;;;;;;5028815;28;20037;-67
2021/01/15 09:16:24;;;;;;;9.95;8.77;;;1.80;92.30;;;;;;5030428;28;20541;-67
2021/01/15 09:18:56;;;;;;;10.68;8.90;;;1.80;92.30;;;;;;5026695;28;20121;-67
2021/01/15 09:21:22;;;;;;;11.57;9.50;;;1.70;92.20;;;;;;5028087;28;20364;-67
2021/01/15 09:23:49;;;;;;;10.93;8.75;;;1.80;92.30;;;;;;5031496;28;20057;-67
2021/01/15 09:26:18;;;;;;;11.48;9.07;;;1.80;92.30;;;;;;5024686;28;20614;-67
2021/01/15 09:28:45;;;;;;;10.50;8.80;;;1.80;92.30;;;;;;5023294;28;20037;-67
2021/01/15 09:31:11;;;;;;;14.25;8.30;;;1.80;92.30;;;;;;5026550;28;20403;-67
2021/01/15 09:33:46;;;;;;;10.82;9.02;;;1.80;92.30;;;;;;5023027;28;20033;-67
2021/01/15 09:36:19;;;;;;;9.80;8.80;;;1.90;92.30;;;;;;5028180;28;20076;-67
2021/01/15 09:38:45;;;;;;;8.10;7.28;;;1.90;92.30;;;;;;5025413;28;20041;-67
2021/01/15 09:41:10;;;;;;;11.18;8.35;;;1.90;92.30;;;;;;5026842;28;20044;-67
2021/01/15 09:43:36;;;;;;;8.90;7.82;;;2.00;92.30;;;;;;5028555;28;20522;-67
2021/01/15 09:46:02;;;;;;;26.65;8.85;;;2.00;92.20;;;;;;5026962;28;20037;-67
2021/01/15 09:48:27;;;;;;;16.10;9.10;;;2.00;92.10;;;;;;5021426;28;20033;-67
2021/01/15 09:50:54;;;;;;;10.10;8.27;;;2.00;92.10;;;;;;5020257;28;20037;-67
2021/01/15 09:53:19;;;;;;;11.02;8.48;;;2.10;92.10;;;;;;5024244;28;20498;-67
2021/01/15 09:55:45;;;;;;;9.77;7.57;;;2.10;92.10;;;;;;5026722;28;20067;-67
2021/01/15 09:58:12;;;;;;;9.68;7.13;;;2.10;92.00;;;;;;5025580;28;20513;-67
2021/01/15 10:00:39;;;;;;;8.38;7.43;;;2.10;92.00;;;;;;5026619;28;20037;-67
2021/01/15 10:03:05;;;;;;;8.60;7.15;;;2.10;92.00;;;;;;5025256;28;20041;-67
2021/01/15 10:05:31;;;;;;;9.60;7.43;;;2.20;91.90;;;;;;5027131;28;20123;-67
2021/01/15 10:07:57;;;;;;;8.45;6.82;;;2.20;91.90;;;;;;5022937;28;20487;-67
2021/01/15 10:10:22;;;;;;;11.57;7.72;;;2.20;91.90;;;;;;5022453;28;20044;-67
2021/01/15 10:12:48;;;;;;;9.18;6.80;;;2.20;91.90;;;;;;5025464;28;20037;-67
2021/01/15 10:15:14;;;;;;;8.35;6.50;;;2.20;91.80;;;;;;5027149;28;20160;-67
2021/01/15 10:17:46;;;;;;;8.55;7.28;;;2.20;91.70;;;;;;5024500;28;20115;-67
2021/01/15 10:20:12;;;;;;;11.00;6.88;;;2.30;91.80;;;;;;5021003;28;20033;-67
2021/01/15 10:22:39;;;;;;;7.18;6.47;;;2.30;91.80;;;;;;5023545;28;20132;-68
2021/01/15 10:25:05;;;;;;;11.40;6.70;;;2.30;91.60;;;;;;5019831;28;20036;-68
2021/01/15 10:27:31;;;;;;;9.15;6.32;;;2.30;91.60;;;;;;5023718;28;20049;-68
2021/01/15 10:29:56;;;;;;;10.70;7.03;;;2.30;91.60;;;;;;5024830;28;20059;-68
2021/01/15 10:32:22;;;;;;;7.93;6.38;;;2.30;91.60;;;;;;5022527;28;20048;-68
2021/01/15 10:34:47;;;;;;;10.20;6.18;;;2.40;91.60;;;;;;5023072;28;20042;-68
2021/01/15 10:37:13;;;;;;;7.18;6.45;;;2.40;91.60;;;;;;5026179;28;20040;-68
2021/01/15 10:39:40;;;;;;;9.35;7.07;;;2.40;91.60;;;;;;5022809;28;20472;-68
2021/01/15 10:42:05;;;;;;;8.98;6.90;;;2.40;91.50;;;;;;5026728;28;20052;-68
2021/01/15 10:44:31;;;;;;;8.88;6.93;;;2.40;91.50;;;;;;5023565;28;20041;-68
2021/01/15 10:46:57;;;;;;;8.35;6.03;;;2.50;91.40;;;;;;5022577;28;20041;-68
2021/01/15 10:49:23;;;;;;;7.28;6.18;;;2.40;91.40;;;;;;5026062;28;20042;-68
2021/01/15 10:51:52;;;;;;;8.57;6.68;;;2.50;91.50;;;;;;5023217;28;20443;-68
2021/01/15 10:54:18;;;;;;;7.13;6.22;;;2.40;91.40;;;;;;5021718;28;20477;-68
2021/01/15 10:56:45;;;;;;;6.93;6.22;;;2.50;91.30;;;;;;5023792;28;20060;-68
2021/01/15 10:59:11;;;;;;;7.97;6.35;;;2.50;91.30;;;;;;5025315;28;20392;-68
2021/01/15 11:01:37;;;;;;;6.93;6.15;;;2.50;91.30;;;;;;5021794;28;20046;-68
2021/01/15 11:04:06;;;;;;;7.78;6.32;;;2.50;91.20;;;;;;5023924;28;20033;-68
2021/01/15 11:06:33;;;;;;;8.05;6.35;;;2.50;91.20;;;;;;5024619;28;20113;-68
2021/01/15 11:08:59;;;;;;;8.90;6.45;;;3.00;91.30;;;;;;5022816;28;20042;-68
2021/01/15 11:11:25;;;;;;;11.23;6.95;;;2.50;91.10;;;;;;5016705;28;20026;-68
2021/01/15 11:13:50;;;;;;;7.32;6.13;;;2.60;91.10;;;;;;5021423;28;20042;-68
2021/01/15 11:16:16;;;;;;;8.23;6.47;;;2.60;91.10;;;;;;5021265;28;20049;-68
2021/01/15 11:18:42;;;;;;;8.82;6.18;;;2.60;90.80;;;;;;5022704;28;20034;-68
2021/01/15 11:21:11;;;;;;;9.45;6.07;;;2.70;90.80;;;;;;5022127;28;20033;-68
2021/01/15 11:23:37;;;;;;;7.20;5.60;;;2.70;90.70;;;;;;5021380;28;20049;-68
2021/01/15 11:26:03;;;;;;;6.47;5.88;;;2.60;90.60;;;;;;5022412;28;20041;-68
2021/01/15 11:28:29;;;;;;;7.72;5.97;;;2.70;90.70;;;;;;5019922;28;20543;-68
2021/01/15 11:30:55;;;;;;;8.77;6.05;;;2.70;90.70;;;;;;5025665;28;20033;-68
2021/01/15 11:33:21;;;;;;;6.50;5.68;;;2.80;90.60;;;;;;5021032;28;20050;-68
2021/01/15 11:35:47;;;;;;;8.85;6.18;;;2.70;90.50;;;;;;5025754;28;20627;-68
2021/01/15 11:38:13;;;;;;;8.50;5.80;;;2.70;90.50;;;;;;5026453;28;20080;-68
2021/01/15 11:40:39;;;;;;;6.78;5.20;;;2.80;90.40;;;;;;5023024;28;20043;-68
2021/01/15 11:43:04;;;;;;;9.80;6.72;;;2.80;90.30;;;;;;5024924;28;20117;-68
2021/01/15 11:45:30;;;;;;;8.52;5.72;;;2.80;90.40;;;;;;5023091;28;20441;-68
2021/01/15 11:47:56;;;;;;;7.53;5.68;;;2.80;90.00;;;;;;5024154;28;20041;-68
2021/01/15 11:50:24;;;;;;;8.00;5.78;;;2.90;89.60;;;;;;5024577;28;20030;-68
2021/01/15 11:52:55;;;;;;;8.95;5.47;;;2.90;89.50;;;;;;5025733;28;20095;-68
2021/01/15 11:55:21;;;;;;;6.75;5.55;;;2.80;89.60;;;;;;5029588;28;20037;-68
2021/01/15 11:57:53;;;;;;;8.80;5.72;;;2.90;87.50;;;;;;5024819;28;20151;-68
2021/01/15 12:00:21;;;;;;;5.72;4.43;;;2.80;83.90;;;;;;5027567;28;20034;-68
2021/01/15 12:02:47;;;;;;;8.95;5.78;;;2.80;81.50;;;;;;5030789;28;20368;-68
2021/01/15 12:05:13;;;;;;;8.50;5.50;;;2.70;83.40;;;;;;5027711;28;20088;-68
2021/01/15 12:07:40;;;;;;;6.20;4.60;;;2.70;84.60;;;;;;5025972;28;20029;-68
2021/01/15 12:10:07;;;;;;;8.65;5.45;;;2.70;83.80;;;;;;5028109;28;20045;-68
2021/01/15 12:12:40;;;;;;;6.63;4.88;;;2.60;82.10;;;;;;5027702;28;20034;-68
2021/01/15 12:15:08;;;;;;;8.07;5.28;;;2.60;80.30;;;;;;5026847;28;20041;-68
2021/01/15 12:17:34;;;;;;;7.25;5.10;;;2.60;80.20;;;;;;5029300;28;20064;-68
2021/01/15 12:20:00;;;;;;;8.98;5.20;;;2.50;81.00;;;;;;5027925;28;20099;-68
2021/01/15 12:22:26;;;;;;;6.63;5.15;;;2.40;78.30;;;;;;5018733;28;20145;-68
2021/01/15 12:24:52;;;;;;;7.38;5.93;;;2.50;78.50;;;;;;5026539;28;20124;-68
2021/01/15 12:27:18;;;;;;;6.38;4.30;;;2.40;80.00;;;;;;5031708;28;20033;-68
2021/01/15 12:29:43;;;;;;;7.55;5.13;;;2.40;77.30;;;;;;5029442;28;20034;-68
2021/01/15 12:32:09;;;;;;;7.05;5.10;;;2.40;77.70;;;;;;5029107;28;20112;-68
2021/01/15 12:34:35;;;;;;;6.25;4.97;;;2.30;76.90;;;;;;5024311;28;20052;-68
2021/01/15 12:37:00;;;;;;;9.27;5.32;;;2.40;76.70;;;;;;5027754;28;20069;-68
2021/01/15 12:39:26;;;;;;;7.85;5.05;;;2.30;78.50;;;;;;5028608;28;20088;-68
2021/01/15 12:41:52;;;;;;;5.38;4.57;;;2.30;78.30;;;;;;5029269;28;20034;-68
2021/01/15 12:44:18;;;;;;;7.63;4.47;;;2.20;78.80;;;;;;5025012;28;20036;-68
2021/01/15 12:46:43;;;;;;;6.72;4.85;;;2.20;79.40;;;;;;5027031;28;20049;-68
2021/01/15 12:49:09;;;;;;;7.55;5.03;;;2.30;79.80;;;;;;5028301;28;20036;-68
2021/01/15 12:51:35;;;;;;;7.03;6.03;;;2.30;79.80;;;;;;5027629;28;20414;-68
2021/01/15 12:54:01;;;;;;;7.70;5.68;;;2.20;79.50;;;;;;5028598;28;20048;-68
2021/01/15 12:56:34;;;;;;;7.93;5.55;;;2.20;80.90;;;;;;5026724;28;20037;-68
2021/01/15 12:59:00;;;;;;;8.70;5.75;;;2.10;80.80;;;;;;5026720;28;20041;-68
2021/01/15 13:01:26;;;;;;;8.00;5.65;;;2.10;81.00;;;;;;5026098;28;20064;-68